Time;durP1;ratioP1;P1;durP2;ratioP2;P2;SDS_P1;SDS_P2;PMS_P1;PMS_P2;Temp;Humidity;BMP_temperature;BMP_pressure;BME280_temperature;BME280_humidity;BME280_pressure;Samples;Min_cycle;Max_cycle;Signal;HPM_P1;HPM_P2
2022/05/21 00:02:43;;;;;;;5.97;2.40;;;;;;;21.61;58.39;98105.06;8383033;28;20239;-89
2022/05/21 00:06:46;;;;;;;4.27;2.27;;;;;;;21.56;58.50;98117.78;8383218;28;20243;-85
2022/05/21 00:10:50;;;;;;;6.03;2.23;;;;;;;21.48;58.00;98120.28;8382955;28;20226;-86
2022/05/21 00:14:53;;;;;;;4.07;2.40;;;;;;;21.43;58.70;98132.97;8382624;28;20236;-83
2022/05/21 00:18:56;;;;;;;4.80;2.63;;;;;;;21.52;57.62;98137.47;8381859;28;20237;-83
2022/05/21 00:22:59;;;;;;;7.93;2.53;;;;;;;21.55;57.92;98144.28;8381523;28;20231;-83
2022/05/21 00:27:04;;;;;;;3.33;2.30;;;;;;;21.34;57.96;98160.09;8381596;28;20247;-84
2022/05/21 00:31:08;;;;;;;4.83;2.37;;;;;;;21.03;57.97;98176.69;8381449;28;20231;-83
2022/05/21 00:35:11;;;;;;;4.83;2.67;;;;;;;20.43;56.85;98191.31;8381169;28;20235;-83
2022/05/21 00:39:14;;;;;;;5.77;2.20;;;;;;;19.82;57.65;98199.66;8381413;28;20525;-83
2022/05/21 00:43:42;;;;;;;6.10;2.77;;;;;;;19.51;57.67;98209.91;8381129;28;20235;-84
2022/05/21 00:47:45;;;;;;;7.27;2.87;;;;;;;19.59;57.45;98209.31;8409087;28;20518;-83
2022/05/21 00:51:49;;;;;;;4.87;2.43;;;;;;;19.63;57.49;98206.34;8414392;28;20240;-83
2022/05/21 00:55:53;;;;;;;4.43;2.37;;;;;;;19.87;56.95;98222.00;8413641;28;20244;-85
2022/05/21 00:59:59;;;;;;;7.20;2.57;;;;;;;19.90;56.66;98221.75;8413918;28;20237;-82
2022/05/21 01:04:02;;;;;;;6.73;2.37;;;;;;;19.77;56.14;98235.97;8413938;28;20535;-83
2022/05/21 01:08:06;;;;;;;6.33;2.20;;;;;;;19.90;55.16;98245.41;8413850;28;20235;-82
2022/05/21 01:12:09;;;;;;;4.97;2.30;;;;;;;19.62;54.27;98245.84;8413583;28;20229;-82
2022/05/21 01:16:14;;;;;;;5.97;2.20;;;;;;;19.64;54.58;98247.41;8413751;28;20233;-82
2022/05/21 01:20:20;;;;;;;3.33;1.87;;;;;;;19.78;53.44;98253.41;8413764;28;20257;-80
2022/05/21 01:24:24;;;;;;;5.97;2.00;;;;;;;19.70;54.13;98261.84;8379883;28;20227;-84
2022/05/21 01:28:29;;;;;;;4.13;2.00;;;;;;;19.65;53.24;98266.66;8380685;28;20431;-87
2022/05/21 01:32:32;;;;;;;5.90;1.93;;;;;;;19.63;52.65;98263.28;8380535;28;20242;-87
2022/05/21 01:36:36;;;;;;;6.87;2.00;;;;;;;19.57;52.95;98267.19;8380177;28;20349;-87
2022/05/21 01:40:40;;;;;;;6.77;2.20;;;;;;;19.68;52.72;98269.00;8380118;28;20230;-86
2022/05/21 01:44:46;;;;;;;2.53;2.07;;;;;;;19.68;52.79;98274.28;8380351;28;20519;-87
2022/05/21 01:48:49;;;;;;;4.23;2.20;;;;;;;19.67;52.94;98277.88;8380332;28;20408;-87
2022/05/21 01:52:52;;;;;;;3.40;2.10;;;;;;;19.49;52.88;98293.22;8380187;28;20540;-87
2022/05/21 01:56:56;;;;;;;5.73;2.10;;;;;;;19.32;52.24;98284.84;8380288;28;20248;-86
2022/05/21 02:00:59;;;;;;;4.50;2.30;;;;;;;19.25;53.00;98290.69;8380386;28;20517;-87
2022/05/21 02:05:02;;;;;;;2.93;2.17;;;;;;;19.43;52.69;98294.53;8380307;28;20253;-87
2022/05/21 02:09:05;;;;;;;2.27;2.03;;;;;;;19.46;53.00;98302.19;8386186;28;20293;-87
2022/05/21 02:13:13;;;;;;;5.63;2.20;;;;;;;19.34;52.77;98303.09;8385935;28;20428;-87
2022/05/21 02:17:16;;;;;;;8.47;2.33;;;;;;;19.34;52.89;98313.59;8385892;28;20241;-87
2022/05/21 02:21:19;;;;;;;3.43;2.37;;;;;;;19.31;53.00;98312.03;8385716;28;20233;-87
2022/05/21 02:25:22;;;;;;;4.93;2.20;;;;;;;19.42;52.25;98316.50;8418374;28;20545;-85
2022/05/21 02:29:27;;;;;;;4.73;2.07;;;;;;;19.24;52.83;98318.69;8418545;28;20236;-87
2022/05/21 02:33:30;;;;;;;7.70;1.90;;;;;;;19.10;53.13;98318.91;8418413;28;20236;-87
2022/05/21 02:41:53;;;;;;;5.40;2.00;;;;;;;19.05;52.02;98331.50;8418282;28;20532;-88
2022/05/21 02:45:58;;;;;;;4.27;1.63;;;;;;;18.95;52.21;98328.72;8418294;28;20230;-87
2022/05/21 02:50:01;;;;;;;4.93;1.90;;;;;;;19.02;52.83;98332.59;8418124;28;20530;-87
2022/05/21 02:54:06;;;;;;;5.13;1.80;;;;;;;19.01;52.79;98337.94;8417830;28;20227;-87
2022/05/21 02:58:09;;;;;;;1.60;1.50;;;;;;;18.94;52.28;98342.78;8418085;28;20553;-87
2022/05/21 03:02:13;;;;;;;4.23;1.60;;;;;;;18.94;52.01;98358.53;8417883;28;20231;-88
2022/05/21 03:06:16;;;;;;;2.17;1.57;;;;;;;18.89;52.52;98355.41;8417752;28;20236;-87
2022/05/21 03:10:22;;;;;;;2.60;1.40;;;;;;;18.80;52.72;98361.28;8417561;28;20231;-87
2022/05/21 03:14:25;;;;;;;5.27;1.70;;;;;;;18.68;52.30;98363.84;8409020;28;20530;-87
2022/05/21 03:18:30;;;;;;;3.07;1.73;;;;;;;18.53;52.91;98371.00;8385019;28;20297;-87
2022/05/21 03:22:32;;;;;;;6.07;1.87;;;;;;;18.72;52.59;98367.91;8377383;28;20502;-87
2022/05/21 03:26:36;;;;;;;3.17;1.97;;;;;;;18.58;52.34;98372.47;8383705;28;20540;-88
2022/05/21 03:30:39;;;;;;;2.53;1.90;;;;;;;18.36;52.33;98376.59;8384001;28;20243;-86
2022/05/21 03:34:43;;;;;;;4.40;1.83;;;;;;;18.50;52.22;98378.25;8374877;28;20243;-87
2022/05/21 03:38:46;;;;;;;4.40;2.00;;;;;;;18.22;52.72;98380.19;8397678;28;20234;-87
2022/05/21 03:42:49;;;;;;;4.67;2.10;;;;;;;18.15;52.59;98399.91;8383301;28;20227;-86
2022/05/21 03:46:52;;;;;;;4.27;2.20;;;;;;;18.21;52.62;98396.03;8383364;28;20227;-87
2022/05/21 03:50:56;;;;;;;5.90;2.20;;;;;;;18.20;52.87;98400.44;8383376;28;20227;-87
2022/05/21 03:54:59;;;;;;;3.43;1.90;;;;;;;18.18;52.28;98404.91;8382893;28;20235;-87
2022/05/21 03:59:03;;;;;;;4.70;2.03;;;;;;;18.28;51.74;98407.78;8382855;28;20228;-88
2022/05/21 04:03:06;;;;;;;3.83;2.30;;;;;;;18.21;52.04;98417.81;8382816;28;20257;-87
2022/05/21 04:07:10;;;;;;;4.53;2.07;;;;;;;18.26;50.86;98425.34;8382476;28;20240;-85
2022/05/21 04:11:13;;;;;;;5.00;2.30;;;;;;;18.21;51.88;98433.53;8382512;28;20231;-88
2022/05/21 04:15:16;;;;;;;6.03;2.40;;;;;;;18.43;51.46;98440.78;8382088;28;20235;-87
2022/05/21 04:19:19;;;;;;;4.20;2.13;;;;;;;18.39;52.16;98439.34;8382139;28;20228;-87
2022/05/21 04:23:24;;;;;;;3.63;2.70;;;;;;;18.48;51.10;98441.28;8381686;28;20234;-80
2022/05/21 04:27:27;;;;;;;4.43;2.60;;;;;;;18.40;50.40;98448.84;8381778;28;20228;-87
2022/05/21 04:31:30;;;;;;;4.77;2.43;;;;;;;18.42;50.19;98451.38;8381528;28;20255;-87
2022/05/21 04:39:56;;;;;;;7.70;2.63;;;;;;;18.46;50.22;98458.91;8381583;28;20223;-86
2022/05/21 04:43:59;;;;;;;4.50;2.53;;;;;;;18.48;49.84;98466.69;8381571;28;20228;-87
2022/05/21 04:48:03;;;;;;;5.63;3.03;;;;;;;18.47;49.89;98465.84;8381414;28;20226;-88
2022/05/21 04:52:06;;;;;;;3.90;2.73;;;;;;;18.42;49.79;98467.94;8381351;28;20365;-87
2022/05/21 04:56:10;;;;;;;6.30;2.77;;;;;;;18.61;50.21;98453.56;8381024;28;20538;-88
2022/05/21 05:00:33;;;;;;;4.03;2.77;;;;;;;18.55;49.38;98468.78;8407143;28;20226;-88
2022/05/21 05:04:36;;;;;;;8.47;3.00;;;;;;;18.50;49.50;98452.50;8413750;28;20233;-86
2022/05/21 05:08:39;;;;;;;6.47;3.10;;;;;;;18.52;49.73;98450.66;8414176;28;20234;-88
2022/05/21 05:12:44;;;;;;;5.13;2.73;;;;;;;18.56;49.49;98446.00;8413919;28;20243;-87
2022/05/21 05:16:47;;;;;;;3.83;2.90;;;;;;;18.48;49.29;98461.44;8413647;28;20238;-87
2022/05/21 05:20:53;;;;;;;4.90;2.90;;;;;;;18.72;49.39;98466.78;8413820;28;20230;-88
2022/05/21 05:24:56;;;;;;;4.70;2.70;;;;;;;18.60;49.43;98471.09;8413981;28;20246;-88
2022/05/21 05:29:00;;;;;;;5.20;2.83;;;;;;;18.72;49.18;98469.41;8414049;28;20230;-88
2022/05/21 05:33:02;;;;;;;4.33;2.60;;;;;;;18.64;49.23;98464.69;8413616;28;20240;-87
2022/05/21 05:37:06;;;;;;;5.03;2.20;;;;;;;18.48;49.43;98471.94;8413525;28;20418;-87
2022/05/21 05:41:09;;;;;;;3.90;2.47;;;;;;;18.73;49.58;98468.44;8415769;28;20302;-87
2022/05/21 05:45:18;;;;;;;4.57;2.27;;;;;;;18.70;49.42;98461.63;8419971;28;20472;-87
2022/05/21 05:49:21;;;;;;;5.40;2.27;;;;;;;18.83;49.86;98472.16;8419861;28;20429;-88
2022/05/21 05:53:24;;;;;;;4.30;2.37;;;;;;;18.62;48.62;98463.97;8411340;28;20235;-86
2022/05/21 05:57:27;;;;;;;4.97;2.20;;;;;;;18.87;48.03;98470.97;8419587;28;20238;-87
2022/05/21 06:01:32;;;;;;;2.93;2.00;;;;;;;19.01;47.65;98484.91;8419110;28;20530;-87
2022/05/21 06:05:35;;;;;;;5.37;2.00;;;;;;;19.16;46.93;98493.50;8418244;28;20540;-87
2022/05/21 06:09:38;;;;;;;3.20;1.80;;;;;;;19.26;47.68;98484.00;8401609;28;20228;-87
2022/05/21 06:13:41;;;;;;;4.87;1.90;;;;;;;19.28;46.57;98484.72;8384979;28;20229;-87
2022/05/21 06:17:45;;;;;;;4.33;2.00;;;;;;;19.10;46.69;98494.75;8385109;28;20233;-83
2022/05/21 06:21:48;;;;;;;2.53;1.70;;;;;;;19.43;45.29;98485.41;8378027;28;20236;-84
2022/05/21 06:25:51;;;;;;;3.30;1.80;;;;;;;19.86;46.00;98493.66;8386806;28;20225;-84
2022/05/21 06:29:54;;;;;;;3.70;1.80;;;;;;;19.58;45.91;98484.28;8384972;28;20232;-84
2022/05/21 06:33:59;;;;;;;4.03;1.77;;;;;;;19.56;45.96;98490.63;8376243;28;20220;-83
2022/05/21 06:38:03;;;;;;;3.77;1.40;;;;;;;19.62;46.69;98492.78;8407037;28;20230;-87
2022/05/21 06:42:06;;;;;;;2.60;1.50;;;;;;;19.67;46.68;98491.50;8416894;28;20396;-83
2022/05/21 06:46:09;;;;;;;2.97;1.50;;;;;;;19.90;45.68;98497.72;8417174;28;20225;-82
2022/05/21 06:50:14;;;;;;;4.40;1.37;;;;;;;19.84;44.46;98497.34;8416839;28;20243;-80
2022/05/21 06:54:16;;;;;;;5.27;1.70;;;;;;;19.77;44.25;98496.13;8416695;28;20233;-81
2022/05/21 06:58:19;;;;;;;3.20;1.67;;;;;;;19.87;44.61;98503.19;8416942;28;20551;-84
2022/05/21 07:02:22;;;;;;;2.27;1.70;;;;;;;19.67;44.82;98499.38;8407880;28;20229;-83
2022/05/21 07:10:46;;;;;;;5.10;1.63;;;;;;;20.60;42.83;98495.16;8376168;28;20228;-83
2022/05/21 07:14:49;;;;;;;4.53;1.80;;;;;;;20.71;42.96;98497.78;8416144;28;20239;-84
2022/05/21 07:18:52;;;;;;;2.27;1.60;;;;;;;20.99;42.63;98491.22;8375259;28;20228;-84
2022/05/21 07:22:57;;;;;;;2.90;1.77;;;;;;;21.27;41.79;98484.59;8363192;28;20395;-83
2022/05/21 07:27:00;;;;;;;3.80;1.63;;;;;;;21.43;41.56;98484.19;8383030;28;20245;-80
2022/05/21 07:31:03;;;;;;;2.20;1.70;;;;;;;21.65;41.74;98493.03;8382807;28;20230;-84
2022/05/21 07:35:08;;;;;;;5.43;1.50;;;;;;;22.13;40.75;98495.19;8382558;28;20229;-82
2022/05/21 07:39:12;;;;;;;6.10;1.93;;;;;;;22.22;40.61;98493.59;8381912;28;20238;-85
2022/05/21 07:43:16;;;;;;;1.90;1.30;;;;;;;22.52;37.74;98506.00;8382285;28;20232;-84
2022/05/21 07:47:22;;;;;;;4.30;1.30;;;;;;;22.99;37.67;98521.38;8381616;28;20235;-84
2022/05/21 07:51:26;;;;;;;5.83;1.70;;;;;;;22.98;37.10;98506.50;8381670;28;20371;-84
2022/05/21 07:55:30;;;;;;;3.27;1.63;;;;;;;23.15;35.98;98502.41;8381596;28;20243;-84
2022/05/21 07:59:33;;;;;;;2.43;1.90;;;;;;;22.96;37.64;98498.72;8381716;28;20240;-85
2022/05/21 08:03:36;;;;;;;2.73;1.43;;;;;;;23.49;36.78;98505.56;8380944;28;20585;-85
2022/05/21 08:07:39;;;;;;;3.10;1.30;;;;;;;23.42;36.41;98496.53;8381421;28;20242;-84
2022/05/21 08:11:44;;;;;;;3.17;1.50;;;;;;;22.81;36.20;98506.16;8381444;28;20235;-84
2022/05/21 08:15:47;;;;;;;2.03;1.30;;;;;;;21.99;37.60;98503.41;8380688;28;20231;-83
2022/05/21 08:19:50;;;;;;;2.43;1.70;;;;;;;22.36;38.15;98509.13;8381361;28;20234;-84
2022/05/21 08:28:15;;;;;;;1.97;1.53;;;;;;;23.57;33.83;98495.16;8380878;28;20396;-84
2022/05/21 08:32:18;;;;;;;4.63;1.50;;;;;;;23.39;34.65;98502.91;8380734;28;20290;-84
2022/05/21 08:36:21;;;;;;;3.43;1.60;;;;;;;22.82;36.00;98512.28;8380548;28;20238;-84
2022/05/21 08:40:25;;;;;;;2.63;1.40;;;;;;;23.64;36.02;98497.22;8379560;28;20239;-85
2022/05/21 08:44:37;;;;;;;5.03;1.40;;;;;;;23.77;33.89;98513.66;8380448;28;20235;-85
2022/05/21 08:48:45;;;;;;;2.17;1.20;;;;;;;24.08;32.74;98495.84;8380272;28;20233;-84
2022/05/21 08:52:53;;;;;;;3.20;1.07;;;;;;;23.77;34.72;98492.50;8380543;28;20520;-84
2022/05/21 08:56:57;;;;;;;3.07;1.20;;;;;;;23.76;33.74;98496.97;8380431;28;20235;-85
2022/05/21 09:01:02;;;;;;;2.10;1.30;;;;;;;24.10;34.35;98487.78;8380065;28;20234;-85
2022/05/21 09:05:08;;;;;;;3.43;1.70;;;;;;;23.58;35.17;98486.22;8379896;28;20272;-84
2022/05/21 09:09:20;;;;;;;2.00;1.37;;;;;;;23.81;35.75;98484.19;8378803;28;20229;-84
2022/05/21 09:13:31;;;;;;;2.53;1.40;;;;;;;24.07;36.19;98486.25;8379454;28;20403;-84
2022/05/21 09:17:42;;;;;;;3.83;1.60;;;;;;;23.59;36.15;98485.25;8386268;28;20239;-85
2022/05/21 09:21:46;;;;;;;3.17;1.33;;;;;;;24.16;34.92;98479.28;8386703;28;20224;-84
2022/05/21 09:26:05;;;;;;;3.30;1.17;;;;;;;23.37;36.89;98493.44;8382503;28;20239;-85
2022/05/21 09:30:18;;;;;;;2.57;1.10;;;;;;;24.17;35.63;98480.97;8353848;28;20235;-82
2022/05/21 09:34:26;;;;;;;3.43;1.17;;;;;;;25.13;36.31;98472.81;8353401;28;20229;-84
2022/05/21 09:38:31;;;;;;;7.20;1.57;;;;;;;24.82;36.47;98467.81;8386992;28;20231;-86
2022/05/21 09:47:10;;;;;;;9.77;1.40;;;;;;;25.11;37.69;98480.09;8385959;28;20298;-84
2022/05/21 09:51:30;;;;;;;3.77;1.30;;;;;;;25.28;36.64;98479.31;8385955;28;20545;-77
2022/05/21 09:55:33;;;;;;;9.50;1.37;;;;;;;25.29;36.81;98474.88;8385374;28;20296;-84
2022/05/21 09:59:40;;;;;;;2.83;1.00;;;;;;;26.00;31.41;98478.53;8385528;28;20231;-83
2022/05/21 10:03:50;;;;;;;3.93;0.83;;;;;;;25.54;35.07;98465.34;8385691;28;20237;-85
2022/05/21 10:12:18;;;;;;;5.60;1.13;;;;;;;25.59;34.00;98467.53;8385259;28;20234;-92
2022/05/21 10:16:27;;;;;;;2.00;1.00;;;;;;;25.30;34.31;98457.97;8386235;28;20237;-88
2022/05/21 10:20:35;;;;;;;2.37;0.83;;;;;;;26.03;33.55;98470.28;8384557;28;20235;-92
2022/05/21 10:24:48;;;;;;;2.00;0.93;;;;;;;26.71;31.77;98462.44;8384973;28;20376;-87
2022/05/21 10:29:12;;;;;;;7.20;1.90;;;;;;;26.21;31.25;98451.66;8384472;28;20228;-86
2022/05/21 10:33:29;;;;;;;5.70;1.40;;;;;;;26.67;33.93;98458.44;8384692;28;20241;-87
2022/05/21 10:37:52;;;;;;;7.57;1.50;;;;;;;26.41;33.36;98454.94;8400354;28;20230;-86
2022/05/21 10:42:28;;;;;;;10.30;1.70;;;;;;;25.49;33.41;98444.59;8399085;28;20220;-83
2022/05/21 10:46:38;;;;;;;5.63;1.40;;;;;;;25.42;35.08;98450.63;8403839;28;20226;-86
2022/05/21 10:50:46;;;;;;;2.07;1.00;;;;;;;25.75;33.17;98444.66;8414820;28;20544;-81
2022/05/21 10:55:02;;;;;;;5.50;1.53;;;;;;;25.69;33.18;98447.09;8417393;28;20235;-78
2022/05/21 10:59:32;;;;;;;5.73;1.67;;;;;;;25.28;31.01;98442.22;8417456;28;20239;-85
2022/05/21 11:04:03;;;;;;;2.90;1.30;;;;;;;25.03;33.96;98450.84;8410200;28;20523;-87
2022/05/21 11:08:10;;;;;;;8.50;1.40;;;;;;;26.16;30.77;98451.28;8398354;28;20301;-88
2022/05/21 11:12:16;;;;;;;3.87;0.90;;;;;;;26.27;30.79;98453.69;8412964;28;20227;-85
2022/05/21 11:16:24;;;;;;;6.77;1.33;;;;;;;25.67;33.18;98452.53;8414887;28;20244;-85
2022/05/21 11:20:32;;;;;;;4.30;1.10;;;;;;;25.15;33.18;98436.41;8383314;28;20238;-85
2022/05/21 11:24:38;;;;;;;5.93;1.33;;;;;;;25.49;32.25;98433.13;8383736;28;20233;-89
2022/05/21 11:28:43;;;;;;;5.27;1.33;;;;;;;25.07;32.87;98431.84;8383130;28;20228;-85
2022/05/21 11:37:22;;;;;;;2.80;1.17;;;;;;;25.58;33.41;98434.06;8390067;28;20235;-81
2022/05/21 11:41:57;;;;;;;6.60;1.83;;;;;;;25.18;34.42;98430.81;8407475;28;20232;-85
2022/05/21 11:46:01;;;;;;;4.67;1.20;;;;;;;24.53;34.75;98441.47;8415666;28;20229;-90
2022/05/21 11:50:14;;;;;;;2.93;1.20;;;;;;;23.64;32.52;98428.50;8416566;28;20232;-88
2022/05/21 11:54:51;;;;;;;5.73;1.30;;;;;;;25.01;32.50;98442.22;8418448;28;20235;-88
2022/05/21 11:59:18;;;;;;;4.67;1.13;;;;;;;25.60;31.02;98429.44;8417431;28;20227;-91
2022/05/21 12:03:23;;;;;;;5.90;1.43;;;;;;;26.02;30.89;98434.09;8416050;28;20230;-83
2022/05/21 12:07:50;;;;;;;9.43;1.80;;;;;;;25.60;31.08;98430.25;8382001;28;20522;-89
2022/05/21 12:12:17;;;;;;;8.30;1.27;;;;;;;25.05;33.07;98439.13;8380439;28;20420;-87
2022/05/21 12:16:43;;;;;;;4.93;1.30;;;;;;;24.29;33.74;98439.28;8381478;28;20235;-85
2022/05/21 12:20:48;;;;;;;4.73;1.60;;;;;;;24.08;33.51;98440.31;8381158;28;20221;-84
2022/05/21 12:24:52;;;;;;;10.07;1.70;;;;;;;23.50;34.93;98437.69;8381254;28;20227;-84
2022/05/21 12:29:12;;;;;;;4.37;1.17;;;;;;;23.89;34.99;98443.81;8381328;28;20227;-90
2022/05/21 12:33:23;;;;;;;7.27;2.03;;;;;;;23.71;33.34;98438.38;8381364;28;20240;-83
2022/05/21 12:37:30;;;;;;;8.47;1.50;;;;;;;23.89;33.99;98433.22;8414621;28;20237;-90
2022/05/21 12:41:38;;;;;;;4.60;1.53;;;;;;;24.02;33.71;98432.94;8414557;28;20242;-86
2022/05/21 12:45:44;;;;;;;7.00;1.80;;;;;;;25.08;32.49;98424.75;8414779;28;20240;-92
2022/05/21 12:49:49;;;;;;;5.53;1.50;;;;;;;25.47;32.74;98416.56;8413749;28;20228;-88
2022/05/21 12:53:52;;;;;;;4.50;1.60;;;;;;;25.70;32.69;98414.25;8414147;28;20249;-85
2022/05/21 12:57:59;;;;;;;5.03;1.40;;;;;;;25.03;32.28;98417.25;8413801;28;20228;-88
2022/05/21 13:02:10;;;;;;;6.27;1.40;;;;;;;24.85;33.34;98403.16;8414014;28;20228;-87
2022/05/21 13:06:26;;;;;;;3.20;1.40;;;;;;;24.68;33.39;98402.13;8413686;28;20251;-88
2022/05/21 13:10:32;;;;;;;4.47;1.40;;;;;;;25.92;31.05;98405.03;8380245;28;20257;-85
2022/05/21 13:14:38;;;;;;;5.13;1.30;;;;;;;25.23;32.48;98411.88;8380786;28;20234;-89
2022/05/21 13:18:50;;;;;;;4.07;1.63;;;;;;;26.12;31.20;98406.50;8380620;28;20244;-86
2022/05/21 13:23:07;;;;;;;4.87;1.60;;;;;;;25.89;30.18;98403.50;8380320;28;20230;-88
2022/05/21 13:27:13;;;;;;;3.73;1.30;;;;;;;26.12;30.69;98402.97;8380007;28;20586;-88
2022/05/21 13:31:19;;;;;;;15.07;2.13;;;;;;;25.73;31.81;98406.00;8379925;28;20226;-86
2022/05/21 13:35:28;;;;;;;3.40;1.40;;;;;;;25.73;32.05;98406.00;8379813;28;20224;-84
2022/05/21 13:39:33;;;;;;;4.33;1.47;;;;;;;25.60;32.04;98406.41;8379867;28;20242;-87
2022/05/21 13:43:39;;;;;;;4.63;1.50;;;;;;;25.45;30.76;98402.63;8380798;28;20239;-93
2022/05/21 13:47:47;;;;;;;3.50;1.27;;;;;;;25.47;31.34;98396.16;8381173;28;20244;-92
2022/05/21 13:51:51;;;;;;;3.10;1.20;;;;;;;25.34;32.23;98390.41;8380422;28;20230;-88
2022/05/21 13:56:00;;;;;;;7.40;1.50;;;;;;;25.41;32.91;98390.66;8380301;28;20399;-85
2022/05/21 14:00:08;;;;;;;6.10;1.53;;;;;;;25.45;31.93;98387.53;8379433;28;20241;-88
2022/05/21 14:04:14;;;;;;;4.30;1.40;;;;;;;25.02;32.36;98383.81;8384132;28;20338;-86
2022/05/21 14:08:21;;;;;;;3.73;1.40;;;;;;;24.68;31.67;98380.94;8385660;28;20432;-87
2022/05/21 14:12:35;;;;;;;4.90;1.50;;;;;;;24.67;31.15;98379.25;8418745;28;20234;-88
2022/05/21 14:16:40;;;;;;;3.90;1.30;;;;;;;25.07;31.83;98386.81;8418998;28;20245;-88
2022/05/21 14:20:57;;;;;;;5.27;1.60;;;;;;;24.45;32.36;98386.59;8418444;28;20233;-89
2022/05/21 14:25:20;;;;;;;3.37;1.40;;;;;;;24.08;31.45;98373.34;8418827;28;20234;-85
2022/05/21 14:29:41;;;;;;;8.50;1.60;;;;;;;24.38;33.39;98370.44;8384571;28;20233;-86
2022/05/21 14:33:53;;;;;;;6.40;1.60;;;;;;;24.08;32.44;98375.97;8385053;28;20285;-78
2022/05/21 14:37:59;;;;;;;4.43;1.40;;;;;;;24.37;33.30;98373.25;8375426;28;20307;-88
2022/05/21 14:42:02;;;;;;;3.23;1.37;;;;;;;23.76;32.86;98367.41;8384863;28;20253;-90
2022/05/21 14:47:51;;;;;;;5.13;1.57;;;;;;;24.18;33.84;98374.97;8384745;28;20261;-88
2022/05/21 14:54:54;;;;;;;5.00;1.83;;;;;;;24.01;32.46;98359.88;8383662;28;20538;-90
2022/05/21 14:59:02;;;;;;;9.73;1.83;;;;;;;24.25;33.84;98361.16;8384362;28;20233;-91
2022/05/21 15:03:06;;;;;;;12.53;1.50;;;;;;;24.65;32.76;98352.09;8384358;28;20226;-89
2022/05/21 15:07:13;;;;;;;5.90;2.40;;;;;;;24.43;32.00;98355.94;8384083;28;20257;-88
2022/05/21 15:11:18;;;;;;;3.87;1.53;;;;;;;24.70;31.14;98340.06;8383991;28;20230;-90
2022/05/21 15:15:22;;;;;;;5.83;1.63;;;;;;;24.37;31.09;98339.66;8384002;28;20235;-90
2022/05/21 15:19:25;;;;;;;5.57;2.00;;;;;;;24.56;31.95;98332.63;8383186;28;20234;-90
2022/05/21 15:23:28;;;;;;;3.33;1.23;;;;;;;24.14;30.55;98336.56;8383631;28;20228;-88
2022/05/21 15:27:32;;;;;;;4.87;1.60;;;;;;;24.32;30.87;98326.03;8383375;28;20557;-87
2022/05/21 15:31:35;;;;;;;3.70;1.60;;;;;;;24.15;32.68;98327.63;8382837;28;20240;-86
2022/05/21 15:35:38;;;;;;;4.83;1.57;;;;;;;23.61;31.17;98330.00;8382367;28;20421;-86
2022/05/21 15:39:41;;;;;;;7.43;2.30;;;;;;;24.06;34.85;98328.50;8382559;28;20238;-85
2022/05/21 15:43:45;;;;;;;5.07;2.20;;;;;;;24.06;32.11;98319.75;8382593;28;20415;-86
2022/05/21 15:47:48;;;;;;;2.63;1.30;;;;;;;23.57;32.81;98318.03;8382520;28;20240;-90
2022/05/21 15:51:51;;;;;;;7.30;2.70;;;;;;;23.83;35.35;98320.09;8385947;28;20248;-89
2022/05/21 15:55:55;;;;;;;5.57;2.10;;;;;;;23.62;33.07;98317.59;8382964;28;20252;-90
2022/05/21 16:00:01;;;;;;;12.23;2.50;;;;;;;23.80;36.58;98307.16;8381823;28;20232;-87
2022/05/21 16:04:04;;;;;;;8.67;2.20;;;;;;;23.98;32.51;98305.41;8381850;28;20234;-86
2022/05/21 16:08:07;;;;;;;8.97;2.33;;;;;;;23.91;33.00;98304.34;8381742;28;20246;-91
2022/05/21 16:12:11;;;;;;;3.80;1.60;;;;;;;23.68;34.39;98308.28;8382225;28;20259;-87
2022/05/21 16:16:15;;;;;;;12.63;2.10;;;;;;;23.87;33.73;98305.59;8382216;28;20240;-88
2022/05/21 16:20:19;;;;;;;7.40;1.90;;;;;;;23.76;31.90;98297.81;8379898;28;20399;-86
2022/05/21 16:24:22;;;;;;;4.40;1.63;;;;;;;23.31;31.81;98291.38;8348452;28;20230;-80
2022/05/21 16:28:25;;;;;;;6.97;1.80;;;;;;;23.66;33.14;98292.53;8348282;28;20321;-88
2022/05/21 16:32:33;;;;;;;7.23;2.23;;;;;;;23.94;36.24;98287.34;8348388;28;20582;-90
2022/05/21 16:36:36;;;;;;;6.67;2.00;;;;;;;24.04;35.91;98285.50;8358815;28;20553;-90
2022/05/21 16:40:39;;;;;;;4.63;1.70;;;;;;;23.81;32.54;98290.31;8380934;28;20236;-86
2022/05/21 16:44:43;;;;;;;14.13;2.07;;;;;;;23.78;37.29;98280.88;8380761;28;20254;-86
2022/05/21 16:48:47;;;;;;;9.63;2.90;;;;;;;23.69;37.35;98278.22;8380577;28;20236;-79
2022/05/21 16:52:51;;;;;;;9.57;2.30;;;;;;;23.66;37.81;98275.84;8380083;28;20227;-86
2022/05/21 16:57:01;;;;;;;13.20;2.73;;;;;;;23.28;36.65;98277.59;8381122;28;20223;-89
2022/05/21 17:01:04;;;;;;;19.87;2.90;;;;;;;23.62;37.49;98260.28;8380685;28;20235;-88
2022/05/21 17:05:11;;;;;;;12.97;2.60;;;;;;;23.61;37.23;98261.25;8380109;28;20233;-89
2022/05/21 17:09:14;;;;;;;22.50;2.73;;;;;;;23.47;38.30;98264.34;8380728;28;20307;-91
2022/05/21 17:13:17;;;;;;;10.90;2.87;;;;;;;23.45;38.06;98261.00;8386784;28;20233;-86
2022/05/21 17:17:21;;;;;;;13.90;2.33;;;;;;;23.43;36.34;98255.03;8413553;28;20228;-87
2022/05/21 17:21:26;;;;;;;4.93;1.87;;;;;;;23.38;35.15;98255.47;8413041;28;20238;-88
2022/05/21 17:25:29;;;;;;;9.83;2.10;;;;;;;23.53;36.52;98255.00;8413433;28;20239;-84
2022/05/21 17:33:52;;;;;;;9.07;2.07;;;;;;;23.51;36.17;98244.56;8413170;28;20436;-83
2022/05/21 17:37:57;;;;;;;3.33;1.40;;;;;;;23.46;35.42;98241.56;8394421;28;20314;-84
2022/05/21 17:41:59;;;;;;;9.60;1.90;;;;;;;23.43;35.95;98242.66;8385984;28;20227;-83
2022/05/21 17:46:03;;;;;;;12.80;1.67;;;;;;;23.38;35.48;98238.75;8397016;28;20223;-82
2022/05/21 17:50:08;;;;;;;6.27;1.50;;;;;;;23.31;35.11;98241.16;8408195;28;20244;-81
2022/05/21 17:54:16;;;;;;;4.67;1.60;;;;;;;23.17;36.07;98238.94;8389177;28;20562;-88
2022/05/21 17:58:19;;;;;;;9.43;1.93;;;;;;;23.17;35.19;98234.53;8386920;28;20231;-90
2022/05/21 18:02:22;;;;;;;3.93;1.43;;;;;;;23.03;34.82;98234.94;8385309;28;20556;-82
2022/05/21 18:06:25;;;;;;;5.07;1.77;;;;;;;23.12;35.33;98234.09;8385723;28;20381;-83
2022/05/21 18:10:30;;;;;;;8.67;1.60;;;;;;;23.12;35.59;98236.75;8385689;28;20235;-80
2022/05/21 18:14:33;;;;;;;5.83;1.60;;;;;;;23.05;35.90;98237.44;8385341;28;20552;-83
2022/05/21 18:22:56;;;;;;;7.33;1.70;;;;;;;22.94;36.23;98236.59;8386628;28;20223;-85
2022/05/21 18:27:01;;;;;;;7.73;1.67;;;;;;;22.92;36.21;98238.50;8387493;28;20542;-83
2022/05/21 18:31:04;;;;;;;4.40;1.70;;;;;;;22.89;36.43;98236.16;8385090;28;20242;-85
2022/05/21 18:35:08;;;;;;;5.87;1.70;;;;;;;22.89;36.33;98238.00;8384970;28;20227;-88
2022/05/21 18:39:11;;;;;;;6.77;1.50;;;;;;;22.87;36.49;98232.00;8384749;28;20249;-82
2022/05/21 18:43:16;;;;;;;8.27;1.90;;;;;;;22.87;36.82;98237.28;8384600;28;20227;-82
2022/05/21 18:47:19;;;;;;;5.93;1.83;;;;;;;22.73;36.53;98228.81;8383778;28;20235;-84
2022/05/21 18:51:22;;;;;;;5.67;1.80;;;;;;;22.67;36.25;98237.25;8383641;28;20231;-80
2022/05/21 18:55:26;;;;;;;10.63;1.90;;;;;;;22.63;36.91;98247.25;8383740;28;20241;-85
2022/05/21 18:59:30;;;;;;;7.10;1.90;;;;;;;22.60;38.24;98242.28;8383682;28;20243;-87
2022/05/21 19:03:33;;;;;;;9.77;4.00;;;;;;;22.58;39.11;98238.94;8383657;28;20239;-82
2022/05/21 19:07:36;;;;;;;8.40;2.70;;;;;;;22.50;38.51;98243.22;8383527;28;20252;-81
2022/05/21 19:11:39;;;;;;;5.43;3.00;;;;;;;22.43;38.20;98248.22;8383471;28;20238;-82
2022/05/21 19:15:44;;;;;;;4.43;2.40;;;;;;;22.41;38.88;98247.53;8382980;28;20230;-83
2022/05/21 19:19:47;;;;;;;6.37;2.23;;;;;;;22.41;39.41;98236.97;8383285;28;20514;-85
2022/05/21 19:23:50;;;;;;;9.13;3.10;;;;;;;22.37;39.76;98233.78;8383206;28;20421;-85
2022/05/21 19:27:53;;;;;;;7.47;2.73;;;;;;;22.33;39.90;98240.31;8382877;28;20227;-89
2022/05/21 19:31:58;;;;;;;13.40;2.37;;;;;;;22.31;40.77;98239.56;8382219;28;20231;-83
2022/05/21 19:36:01;;;;;;;4.73;1.27;;;;;;;21.98;37.84;98238.06;8382746;28;20530;-89
2022/05/21 19:44:25;;;;;;;3.73;1.80;;;;;;;21.41;38.13;98246.38;8382023;28;20235;-83
2022/05/21 19:48:29;;;;;;;4.70;1.63;;;;;;;21.43;37.59;98247.06;8381632;28;20226;-83
2022/05/21 19:52:33;;;;;;;3.33;1.57;;;;;;;21.30;38.14;98246.44;8377898;28;20253;-83
2022/05/21 19:56:36;;;;;;;4.17;1.50;;;;;;;21.19;39.07;98246.50;8381631;28;20236;-83
2022/05/21 20:00:40;;;;;;;3.80;1.47;;;;;;;21.22;39.26;98243.63;8381181;28;20576;-86
2022/05/21 20:04:45;;;;;;;4.40;1.60;;;;;;;21.17;39.49;98240.53;8381542;28;20532;-82
2022/05/21 20:08:48;;;;;;;4.43;1.40;;;;;;;21.07;39.60;98245.72;8381576;28;20246;-83